Time;durP1;ratioP1;P1;durP2;ratioP2;P2;SDS_P1;SDS_P2;PMS_P1;PMS_P2;Temp;Humidity;BMP_temperature;BMP_pressure;BME280_temperature;BME280_humidity;BME280_pressure;Samples;Min_cycle;Max_cycle;Signal;HPM_P1;HPM_P2
2023/12/07 04:53:33;;;;;;;3.50;2.55;;;;;;;-0.71;100.00;100220.59;5681858;27;20122;-88
2023/12/07 04:56:37;;;;;;;10.05;2.85;;;;;;;-0.72;100.00;100216.28;5369823;33;33667;-88
2023/12/07 04:59:40;;;;;;;2.53;2.42;;;;;;;-0.64;100.00;100222.81;5347228;33;34003;-88
2023/12/07 05:02:43;;;;;;;2.97;2.67;;;;;;;-0.66;100.00;100235.31;5383616;33;33760;-88
2023/12/07 05:05:47;;;;;;;2.85;2.05;;;;;;;-0.66;100.00;100230.87;5356691;33;33585;-88
2023/12/07 05:08:51;;;;;;;3.12;2.60;;;;;;;-0.60;100.00;100229.59;5351335;33;34444;-88
2023/12/07 05:11:54;;;;;;;3.00;2.80;;;;;;;-0.63;100.00;100224.50;5362430;33;34190;-88
2023/12/07 05:14:57;;;;;;;2.90;2.67;;;;;;;-0.68;100.00;100230.94;5354794;33;34760;-88
2023/12/07 05:18:00;;;;;;;2.70;2.50;;;;;;;-0.70;100.00;100235.53;5355201;33;33612;-88
2023/12/07 05:21:04;;;;;;;3.40;2.55;;;;;;;-0.79;100.00;100240.59;5380522;33;35430;-88
2023/12/07 05:24:08;;;;;;;2.28;2.15;;;;;;;-0.81;100.00;100247.81;5354967;33;33896;-88
2023/12/07 05:27:11;;;;;;;2.75;2.55;;;;;;;-0.64;100.00;100244.81;5381828;33;33878;-87
2023/12/07 05:30:14;;;;;;;3.72;2.87;;;;;;;-0.57;100.00;100258.44;5357450;33;33695;-87
2023/12/07 05:33:19;;;;;;;3.33;3.03;;;;;;;-0.55;100.00;100257.37;5381156;33;34010;-87
2023/12/07 05:36:22;;;;;;;2.58;2.37;;;;;;;-0.60;100.00;100263.94;5368376;33;33892;-87
2023/12/07 05:39:25;;;;;;;3.75;2.37;;;;;;;-0.61;100.00;100262.28;5356112;33;33975;-88
2023/12/07 05:42:29;;;;;;;2.62;2.42;;;;;;;-0.61;100.00;100270.19;5367278;33;33775;-88
2023/12/07 05:45:32;;;;;;;2.60;2.35;;;;;;;-0.64;100.00;100267.75;5366913;33;33841;-88
2023/12/07 05:48:35;;;;;;;2.95;2.58;;;;;;;-0.64;100.00;100265.97;5367301;33;33805;-88
2023/12/07 05:51:39;;;;;;;2.87;2.67;;;;;;;-0.60;100.00;100264.78;5347997;33;34815;-88
2023/12/07 05:54:43;;;;;;;3.70;3.00;;;;;;;-0.55;100.00;100267.13;5361359;33;33529;-88
2023/12/07 05:57:46;;;;;;;3.00;2.72;;;;;;;-0.57;100.00;100263.72;5353702;33;34126;-88
2023/12/07 06:00:49;;;;;;;2.42;2.10;;;;;;;-0.58;100.00;100280.56;5353941;33;33953;-87
2023/12/07 06:03:55;;;;;;;3.50;3.20;;;;;;;-0.58;100.00;100277.91;5343835;33;33620;-88
2023/12/07 06:06:58;;;;;;;3.45;3.15;;;;;;;-0.58;100.00;100284.03;5358274;33;35112;-88
2023/12/07 06:10:01;;;;;;;4.35;3.20;;;;;;;-0.59;100.00;100289.44;5345681;33;34876;-88
2023/12/07 06:13:04;;;;;;;4.35;3.05;;;;;;;-0.59;100.00;100287.63;5383481;33;33711;-87
2023/12/07 06:16:13;;;;;;;3.30;3.00;;;;;;;-0.58;100.00;100288.50;5358600;33;34134;-88
2023/12/07 06:19:16;;;;;;;4.20;3.05;;;;;;;-0.50;100.00;100288.75;5380247;33;34300;-88
2023/12/07 06:22:19;;;;;;;3.67;3.37;;;;;;;-0.55;100.00;100299.69;5366440;33;33962;-88
2023/12/07 06:25:22;;;;;;;3.25;2.95;;;;;;;-0.57;100.00;100293.66;5379695;33;33777;-92
2023/12/07 06:28:27;;;;;;;2.90;2.70;;;;;;;-0.55;100.00;100290.91;5349342;33;34611;-93
2023/12/07 06:31:30;;;;;;;3.15;2.87;;;;;;;-0.58;100.00;100299.06;5357685;33;34262;-92
2023/12/07 06:34:40;;;;;;;3.30;3.00;;;;;;;-0.51;100.00;100303.78;5372327;33;33828;-90
2023/12/07 06:37:43;;;;;;;3.85;2.87;;;;;;;-0.50;100.00;100300.22;5382006;33;34623;-89
2023/12/07 06:40:48;;;;;;;5.28;3.53;;;;;;;-0.56;100.00;100308.56;5373661;33;34152;-88
2023/12/07 06:43:51;;;;;;;2.92;2.67;;;;;;;-0.61;100.00;100308.06;5369003;33;33697;-88
2023/12/07 06:46:56;;;;;;;3.03;2.83;;;;;;;-0.62;100.00;100316.91;5354409;33;33928;-88
2023/12/07 06:49:59;;;;;;;4.30;2.67;;;;;;;-0.54;100.00;100321.69;5365969;33;34133;-88
2023/12/07 06:53:02;;;;;;;2.87;2.67;;;;;;;-0.52;100.00;100327.72;5368691;33;34915;-88
2023/12/07 06:56:05;;;;;;;3.25;2.83;;;;;;;-0.57;100.00;100332.47;5360064;33;34238;-88
2023/12/07 06:59:10;;;;;;;3.45;2.60;;;;;;;-0.52;100.00;100328.56;5329490;33;33934;-88
2023/12/07 07:02:13;;;;;;;5.37;3.33;;;;;;;-0.51;100.00;100339.97;5343251;33;33809;-85
2023/12/07 07:05:16;;;;;;;3.60;2.90;;;;;;;-0.41;100.00;100334.88;5367099;33;34476;-87
2023/12/07 07:08:19;;;;;;;6.57;3.65;;;;;;;-0.49;100.00;100341.56;5351981;33;33896;-88
2023/12/07 07:11:22;;;;;;;5.43;3.75;;;;;;;-0.53;100.00;100339.22;5341566;33;33582;-87
2023/12/07 07:14:25;;;;;;;4.53;3.55;;;;;;;-0.56;100.00;100342.94;5343517;33;33903;-88
2023/12/07 07:17:29;;;;;;;6.93;4.07;;;;;;;-0.58;100.00;100339.56;5353508;33;32543;-87
2023/12/07 07:20:32;;;;;;;8.50;4.22;;;;;;;-0.57;100.00;100346.53;5362938;33;33883;-87
2023/12/07 07:23:36;;;;;;;7.78;4.10;;;;;;;-0.54;100.00;100345.47;5353491;33;34830;-87
2023/12/07 07:26:39;;;;;;;6.90;4.00;;;;;;;-0.39;100.00;100354.12;5348626;33;33897;-87
2023/12/07 07:29:53;;;;;;;5.12;4.37;;;;;;;-0.44;100.00;100351.78;5366833;33;34148;-87
2023/12/07 07:32:56;;;;;;;6.15;4.65;;;;;;;-0.46;100.00;100349.28;5365408;33;34833;-88
2023/12/07 07:36:00;;;;;;;7.95;4.97;;;;;;;-0.43;100.00;100347.38;5371876;33;33909;-88
2023/12/07 07:39:07;;;;;;;5.07;4.00;;;;;;;-0.48;100.00;100355.63;5362043;33;34144;-87
2023/12/07 07:42:10;;;;;;;10.02;5.15;;;;;;;-0.38;100.00;100361.09;5358403;33;35175;-88
2023/12/07 07:45:14;;;;;;;7.25;4.40;;;;;;;-0.42;100.00;100367.56;5340668;33;34141;-88
2023/12/07 07:48:17;;;;;;;7.45;4.97;;;;;;;-0.36;100.00;100365.34;5350886;33;34624;-89
2023/12/07 07:51:22;;;;;;;7.82;5.15;;;;;;;-0.34;100.00;100363.44;5364359;33;33920;-90
2023/12/07 08:06:59;;;;;;;6.28;4.40;;;;;;;-0.24;100.00;100372.41;2380311;31;20138;-92
2023/12/07 08:10:07;;;;;;;7.68;4.45;;;;;;;-0.31;100.00;100381.72;5351635;33;34247;-92
2023/12/07 08:13:10;;;;;;;7.40;4.20;;;;;;;-0.33;100.00;100386.28;5350177;33;34682;-92
2023/12/07 08:16:27;;;;;;;8.30;4.50;;;;;;;-0.27;100.00;100385.00;5371844;27;34253;-88
2023/12/07 08:19:30;;;;;;;6.72;5.03;;;;;;;-0.28;100.00;100383.31;5278490;33;32838;-89
2023/12/07 08:22:33;;;;;;;9.10;4.55;;;;;;;-0.28;100.00;100378.88;5266766;33;33854;-87
2023/12/07 08:25:40;;;;;;;6.57;4.53;;;;;;;-0.33;100.00;100385.44;5259107;33;33990;-88
2023/12/07 08:29:09;;;;;;;6.22;4.70;;;;;;;-0.24;100.00;100384.78;5281290;33;34627;-89
2023/12/07 08:32:14;;;;;;;8.10;5.47;;;;;;;-0.23;100.00;100381.19;5259105;33;33848;-88
2023/12/07 08:35:17;;;;;;;14.85;6.15;;;;;;;-0.26;100.00;100384.06;5269746;33;33692;-86
2023/12/07 08:42:22;;;;;;;10.00;5.65;;;;;;;-0.17;100.00;100374.62;5460143;28;20121;-86
2023/12/07 08:45:25;;;;;;;8.82;6.00;;;;;;;-0.06;100.00;100390.56;5341952;33;34067;-87
2023/12/07 08:48:28;;;;;;;7.03;5.22;;;;;;;-0.02;100.00;100382.31;5338316;33;34208;-86
2023/12/07 08:51:32;;;;;;;9.95;6.00;;;;;;;0.00;100.00;100376.91;5339537;33;35207;-87
2023/12/07 08:54:36;;;;;;;12.15;6.43;;;;;;;0.04;100.00;100385.47;5344639;33;35030;-90
2023/12/07 09:30:33;;;;;;;9.18;6.05;;;;;;;0.75;100.00;100389.09;3841409;31;20126;-89
2023/12/07 09:33:36;;;;;;;11.15;6.43;;;;;;;0.79;100.00;100395.84;5363000;33;34047;-88
2023/12/07 09:36:39;;;;;;;8.40;5.68;;;;;;;0.85;100.00;100393.59;5368616;33;34393;-90
2023/12/07 09:39:43;;;;;;;9.90;6.72;;;;;;;0.97;100.00;100391.81;5380042;33;34013;-92
2023/12/07 09:42:46;;;;;;;11.00;7.03;;;;;;;0.99;100.00;100391.69;5368279;33;34154;-93
2023/12/07 09:45:54;;;;;;;9.32;5.40;;;;;;;1.03;100.00;100388.72;5376897;33;34008;-92
2023/12/07 09:48:57;;;;;;;9.57;5.60;;;;;;;1.05;100.00;100385.94;5381146;33;34564;-89
2023/12/07 09:52:03;;;;;;;8.95;5.60;;;;;;;1.06;100.00;100379.69;5339322;33;34773;-88
2023/12/07 09:55:06;;;;;;;7.97;5.43;;;;;;;1.17;100.00;100381.50;5356851;33;33346;-89
2023/12/07 09:58:09;;;;;;;9.43;6.10;;;;;;;1.11;100.00;100381.03;5367151;33;33785;-89
2023/12/07 10:01:14;;;;;;;13.85;7.37;;;;;;;1.11;100.00;100381.03;5364508;33;34287;-88
2023/12/07 10:04:25;;;;;;;10.43;6.12;;;;;;;0.95;100.00;100377.84;5380795;33;33614;-87
2023/12/07 10:07:37;;;;;;;13.10;6.83;;;;;;;0.99;100.00;100386.41;5370630;33;34168;-90
2023/12/07 10:10:41;;;;;;;9.57;6.25;;;;;;;0.98;100.00;100393.50;5341384;33;35055;-88
2023/12/07 10:13:44;;;;;;;11.68;7.72;;;;;;;0.93;100.00;100392.16;5354818;33;34924;-87
2023/12/07 10:16:57;;;;;;;11.23;6.57;;;;;;;1.01;100.00;100393.28;5372093;33;34858;-91
2023/12/07 10:20:11;;;;;;;7.90;5.87;;;;;;;1.09;100.00;100390.91;5369072;33;33991;-88
2023/12/07 10:23:17;;;;;;;11.63;6.10;;;;;;;1.01;100.00;100387.13;5368293;33;34234;-88
2023/12/07 10:26:20;;;;;;;10.85;6.53;;;;;;;1.02;100.00;100389.66;5429312;28;34658;-88
2023/12/07 10:29:24;;;;;;;11.12;6.22;;;;;;;1.02;100.00;100383.50;5379724;33;33990;-88
2023/12/07 10:32:39;;;;;;;9.80;6.45;;;;;;;1.19;100.00;100391.03;5367389;33;35133;-89
2023/12/07 10:35:48;;;;;;;10.85;6.12;;;;;;;1.39;100.00;100391.31;5415018;27;33588;-89
2023/12/07 10:38:53;;;;;;;9.30;6.00;;;;;;;1.51;100.00;100393.84;5384046;33;33751;-91
2023/12/07 10:42:02;;;;;;;10.20;5.87;;;;;;;1.64;100.00;100385.78;5377324;33;35004;-90
2023/12/07 10:45:06;;;;;;;8.82;5.75;;;;;;;1.74;100.00;100391.22;5378254;33;35311;-89
2023/12/07 10:48:11;;;;;;;8.00;4.90;;;;;;;1.67;100.00;100385.56;5370832;33;34405;-90
2023/12/07 10:51:41;;;;;;;8.75;5.15;;;;;;;1.72;100.00;100393.97;5378303;33;34151;-91
2023/12/07 10:58:48;;;;;;;6.95;4.90;;;;;;;1.58;100.00;100396.91;5375687;28;20099;-89
2023/12/07 11:01:52;;;;;;;6.80;4.97;;;;;;;1.42;100.00;100394.56;5361513;33;33889;-89
2023/12/07 11:04:56;;;;;;;7.15;4.95;;;;;;;1.30;100.00;100396.34;5360666;33;34729;-86
2023/12/07 11:08:04;;;;;;;9.45;4.80;;;;;;;1.34;100.00;100399.59;5374091;33;33938;-87
2023/12/07 11:11:28;;;;;;;8.07;5.10;;;;;;;1.31;100.00;100407.81;5373287;33;33944;-86
2023/12/07 11:14:33;;;;;;;7.43;5.30;;;;;;;1.21;100.00;100409.50;5356479;33;32535;-87
2023/12/07 11:17:58;;;;;;;6.95;5.12;;;;;;;1.17;100.00;100406.22;5361603;33;33879;-84
2023/12/07 11:21:02;;;;;;;5.78;5.18;;;;;;;1.25;100.00;100410.94;5357899;33;33744;-85
2023/12/07 11:24:06;;;;;;;8.70;5.53;;;;;;;1.34;100.00;100402.25;5353214;33;35030;-84
2023/12/07 11:27:09;;;;;;;9.02;5.87;;;;;;;1.35;100.00;100412.78;5362403;33;33380;-86
2023/12/07 11:30:15;;;;;;;8.88;5.80;;;;;;;1.33;100.00;100411.19;5348781;33;33865;-85
2023/12/07 11:33:19;;;;;;;9.13;5.32;;;;;;;1.32;100.00;100410.34;5356694;33;34279;-91
2023/12/07 11:36:22;;;;;;;10.30;5.57;;;;;;;1.30;100.00;100411.44;5355267;33;33850;-91
2023/12/07 11:39:26;;;;;;;8.70;5.37;;;;;;;1.33;100.00;100417.34;5378045;33;34080;-86
2023/12/07 11:42:32;;;;;;;10.43;5.70;;;;;;;1.44;100.00;100403.25;5383763;33;34256;-87
2023/12/07 11:45:46;;;;;;;9.70;5.95;;;;;;;1.41;100.00;100408.81;5351048;33;34763;-85
2023/12/07 11:48:49;;;;;;;9.40;5.90;;;;;;;1.48;100.00;100407.34;5389019;33;34004;-85
2023/12/07 11:51:53;;;;;;;9.93;5.55;;;;;;;1.51;100.00;100408.94;5385947;33;34965;-86
2023/12/07 11:54:59;;;;;;;9.48;6.03;;;;;;;1.56;100.00;100404.13;5357309;33;34686;-84
2023/12/07 11:58:02;;;;;;;8.45;5.40;;;;;;;1.58;100.00;100410.16;5349239;33;34097;-84
2023/12/07 12:01:07;;;;;;;9.70;6.07;;;;;;;1.50;100.00;100410.75;5365214;33;35775;-84
2023/12/07 12:04:11;;;;;;;11.23;6.30;;;;;;;1.45;100.00;100404.09;5350485;33;33800;-84
2023/12/07 12:07:14;;;;;;;8.00;5.60;;;;;;;1.55;100.00;100405.94;5361252;33;34157;-85
2023/12/07 12:10:20;;;;;;;8.00;5.37;;;;;;;1.65;100.00;100414.00;5355526;33;33319;-84
2023/12/07 12:13:33;;;;;;;8.18;5.57;;;;;;;1.67;100.00;100416.53;5339045;33;33878;-84
2023/12/07 12:16:37;;;;;;;9.02;5.82;;;;;;;1.72;100.00;100419.69;5367286;33;33792;-84
2023/12/07 12:19:41;;;;;;;9.30;5.70;;;;;;;1.68;100.00;100423.53;5358842;33;34494;-84
2023/12/07 12:22:44;;;;;;;6.68;5.35;;;;;;;1.70;100.00;100417.16;5368019;33;34430;-84
2023/12/07 12:25:48;;;;;;;7.93;5.30;;;;;;;1.54;100.00;100420.13;5356213;33;34306;-84
2023/12/07 12:28:52;;;;;;;7.85;4.90;;;;;;;1.60;100.00;100421.47;5372082;33;33947;-85
2023/12/07 12:31:55;;;;;;;8.35;5.32;;;;;;;1.50;100.00;100425.81;5366106;33;35080;-84
2023/12/07 12:34:58;;;;;;;15.18;6.97;;;;;;;1.51;100.00;100424.84;5353963;33;33950;-85
2023/12/07 12:38:01;;;;;;;14.93;7.87;;;;;;;1.46;100.00;100424.34;5369821;33;34311;-87
2023/12/07 12:41:05;;;;;;;15.68;8.88;;;;;;;1.42;100.00;100428.22;5378713;33;34081;-86
2023/12/07 12:44:10;;;;;;;18.08;11.00;;;;;;;1.26;100.00;100424.09;5369157;33;33720;-86
2023/12/07 12:47:27;;;;;;;19.15;11.52;;;;;;;1.13;100.00;100432.09;5379873;33;33795;-87
2023/12/07 12:50:34;;;;;;;15.27;10.00;;;;;;;0.94;100.00;100433.59;5366431;33;34435;-86
2023/12/07 12:53:44;;;;;;;16.62;9.50;;;;;;;0.80;100.00;100429.34;5361100;33;33788;-86
2023/12/07 12:56:52;;;;;;;19.48;11.25;;;;;;;0.71;100.00;100436.19;5378406;33;33982;-86
2023/12/07 12:59:55;;;;;;;15.02;9.50;;;;;;;0.81;100.00;100444.28;5366090;33;35113;-91
2023/12/07 13:02:58;;;;;;;23.55;11.00;;;;;;;0.90;100.00;100440.94;5353731;33;34102;-91
2023/12/07 13:06:01;;;;;;;18.95;10.77;;;;;;;0.94;100.00;100437.13;5365848;33;34205;-91
2023/12/07 13:09:05;;;;;;;16.62;9.80;;;;;;;0.99;100.00;100442.91;5380397;33;34637;-91
2023/12/07 13:12:09;;;;;;;17.45;10.82;;;;;;;0.75;100.00;100448.22;5357821;33;33896;-87
2023/12/07 13:15:12;;;;;;;22.65;10.93;;;;;;;0.71;100.00;100440.63;5394251;33;34314;-87
2023/12/07 13:18:15;;;;;;;20.73;10.13;;;;;;;0.63;100.00;100452.62;5385194;33;35072;-87
2023/12/07 13:21:18;;;;;;;17.98;9.88;;;;;;;0.58;100.00;100460.06;5366744;33;33747;-86
2023/12/07 13:24:21;;;;;;;20.50;11.48;;;;;;;0.67;100.00;100456.75;5366800;33;33762;-86
2023/12/07 13:27:24;;;;;;;18.90;11.05;;;;;;;0.62;100.00;100458.06;5355076;33;33968;-86
2023/12/07 13:30:29;;;;;;;17.73;10.23;;;;;;;0.58;100.00;100462.69;5366607;33;34169;-87
2023/12/07 13:33:32;;;;;;;21.08;11.73;;;;;;;0.54;100.00;100455.94;5355422;33;33765;-88
2023/12/07 13:36:44;;;;;;;24.33;12.05;;;;;;;0.68;100.00;100466.38;5357072;33;33902;-87
2023/12/07 13:39:53;;;;;;;26.25;12.35;;;;;;;0.60;100.00;100462.59;5340121;33;35409;-87
2023/12/07 13:42:58;;;;;;;22.60;12.60;;;;;;;0.54;100.00;100466.53;5340076;33;34527;-87
2023/12/07 13:46:01;;;;;;;18.42;11.70;;;;;;;0.48;100.00;100472.28;5348495;33;34046;-88
2023/12/07 13:49:04;;;;;;;21.23;11.80;;;;;;;0.39;100.00;100468.50;5347547;33;33811;-87
2023/12/07 13:52:11;;;;;;;18.10;9.52;;;;;;;0.33;100.00;100473.41;5348542;33;34705;-87
2023/12/07 13:55:14;;;;;;;15.60;8.77;;;;;;;0.37;100.00;100478.34;5335901;33;34074;-87
2023/12/07 13:58:17;;;;;;;15.25;8.73;;;;;;;0.42;100.00;100478.03;5347288;33;34900;-85
2023/12/07 14:01:21;;;;;;;14.38;8.00;;;;;;;0.46;100.00;100476.84;5347417;33;34706;-87
2023/12/07 14:04:24;;;;;;;16.55;9.40;;;;;;;0.40;100.00;100479.94;5343066;33;33765;-87
2023/12/07 14:07:31;;;;;;;18.83;9.00;;;;;;;0.36;100.00;100489.06;5378076;33;34182;-87
2023/12/07 14:10:34;;;;;;;14.18;8.73;;;;;;;0.37;100.00;100485.44;5359908;33;34306;-87
2023/12/07 14:13:38;;;;;;;16.12;8.90;;;;;;;0.43;100.00;100490.31;5370348;33;34052;-86
2023/12/07 14:16:42;;;;;;;19.23;9.95;;;;;;;0.43;100.00;100493.78;5365779;33;33878;-87
2023/12/07 14:20:06;;;;;;;14.98;7.97;;;;;;;0.41;100.00;100498.37;5367864;33;33989;-87
2023/12/07 14:23:30;;;;;;;14.82;8.35;;;;;;;0.44;100.00;100495.50;5368642;33;34181;-88
2023/12/07 14:26:33;;;;;;;11.02;7.40;;;;;;;0.32;100.00;100511.41;5379456;33;33730;-87
2023/12/07 14:29:36;;;;;;;14.75;7.95;;;;;;;0.29;100.00;100512.47;5359119;33;34825;-90
2023/12/07 14:32:43;;;;;;;12.27;8.15;;;;;;;0.13;100.00;100515.37;5367113;33;33971;-88
2023/12/07 14:35:48;;;;;;;19.33;9.95;;;;;;;0.12;100.00;100518.13;5355838;33;34384;-91
2023/12/07 14:38:51;;;;;;;19.55;11.12;;;;;;;0.10;100.00;100530.62;5355114;33;34024;-87
2023/12/07 14:41:56;;;;;;;19.83;10.40;;;;;;;0.08;100.00;100529.88;5377524;33;34080;-88
2023/12/07 14:44:59;;;;;;;27.08;11.05;;;;;;;0.08;100.00;100535.16;5378407;32;35500;-88
2023/12/07 14:48:04;;;;;;;21.90;11.27;;;;;;;0.10;100.00;100539.41;5380897;33;34226;-88
2023/12/07 14:51:09;;;;;;;21.15;12.00;;;;;;;0.08;100.00;100540.47;5381336;33;34102;-88
2023/12/07 14:54:12;;;;;;;20.52;12.45;;;;;;;0.04;100.00;100544.28;5357749;33;35152;-88
2023/12/07 14:57:21;;;;;;;19.95;10.93;;;;;;;0.05;100.00;100544.16;5364761;33;33933;-88
2023/12/07 15:00:25;;;;;;;25.65;12.90;;;;;;;0.02;100.00;100552.31;5349734;33;34253;-88
2023/12/07 15:03:28;;;;;;;26.33;13.00;;;;;;;-0.01;100.00;100549.88;5377742;33;33792;-88
2023/12/07 15:06:33;;;;;;;18.67;11.05;;;;;;;-0.11;100.00;100562.06;5379545;33;33994;-88
2023/12/07 15:09:37;;;;;;;20.92;10.80;;;;;;;-0.05;100.00;100562.47;5369838;33;35600;-87
2023/12/07 15:12:40;;;;;;;16.45;10.02;;;;;;;-0.12;100.00;100563.00;5371267;33;34724;-87
2023/12/07 15:15:43;;;;;;;17.83;9.75;;;;;;;-0.12;100.00;100566.47;5348794;33;34034;-87
2023/12/07 15:18:47;;;;;;;14.70;8.48;;;;;;;-0.14;100.00;100570.22;5348987;33;35227;-87
2023/12/07 15:21:50;;;;;;;24.48;12.95;;;;;;;-0.13;100.00;100574.53;5365320;33;161704;-87
2023/12/07 15:24:53;;;;;;;20.90;11.73;;;;;;;-0.13;100.00;100569.25;5368640;33;34389;-87
2023/12/07 15:27:57;;;;;;;21.23;11.50;;;;;;;-0.07;100.00;100574.12;5334553;33;34044;-87
2023/12/07 15:31:01;;;;;;;19.83;10.98;;;;;;;-0.16;100.00;100577.41;5347717;33;34058;-87
2023/12/07 15:34:04;;;;;;;20.27;11.00;;;;;;;-0.06;100.00;100581.97;5334935;33;34264;-88
2023/12/07 15:37:12;;;;;;;19.40;10.68;;;;;;;-0.12;100.00;100585.00;5360573;33;32822;-88
2023/12/07 15:40:17;;;;;;;25.33;11.82;;;;;;;-0.15;100.00;100593.16;5359921;33;33620;-88
2023/12/07 15:43:20;;;;;;;21.62;11.85;;;;;;;-0.15;100.00;100597.59;5373271;33;34155;-88
2023/12/07 15:46:22;;;;;;;21.20;11.38;;;;;;;-0.17;100.00;100589.78;5375574;33;34829;-88
2023/12/07 15:49:27;;;;;;;24.00;13.48;;;;;;;-0.20;100.00;100592.66;5352379;33;33817;-88
2023/12/07 15:52:30;;;;;;;24.90;13.02;;;;;;;-0.24;100.00;100591.12;5363468;33;34321;-88
2023/12/07 15:55:33;;;;;;;30.10;15.63;;;;;;;-0.26;100.00;100599.19;5352566;33;33920;-88
2023/12/07 15:58:36;;;;;;;28.08;13.82;;;;;;;-0.12;100.00;100600.88;5370698;33;34189;-88
2023/12/07 16:01:39;;;;;;;28.48;13.27;;;;;;;-0.03;100.00;100605.59;5366805;33;34208;-88
2023/12/07 16:04:43;;;;;;;26.67;13.88;;;;;;;0.04;100.00;100608.66;5367918;33;33945;-88
2023/12/07 16:07:46;;;;;;;24.50;13.48;;;;;;;0.15;100.00;100613.22;5358367;33;35212;-88
2023/12/07 16:10:49;;;;;;;19.77;11.15;;;;;;;0.02;100.00;100607.91;5368966;33;34334;-88
2023/12/07 16:13:52;;;;;;;19.58;11.63;;;;;;;0.01;100.00;100615.97;5369830;33;34193;-88
2023/12/07 16:16:55;;;;;;;22.55;10.77;;;;;;;0.02;100.00;100617.66;5367859;33;34176;-88
2023/12/07 16:19:57;;;;;;;18.98;9.65;;;;;;;0.15;100.00;100624.66;5367086;33;34981;-88
2023/12/07 16:23:01;;;;;;;15.77;9.05;;;;;;;0.14;100.00;100615.00;5380859;33;34517;-88
2023/12/07 16:26:04;;;;;;;12.50;7.82;;;;;;;0.16;100.00;100623.69;5355220;33;35040;-88
2023/12/07 16:29:07;;;;;;;14.95;8.77;;;;;;;0.10;100.00;100629.41;5355225;33;34099;-88
2023/12/07 16:32:10;;;;;;;15.07;8.30;;;;;;;0.11;100.00;100625.78;5355452;33;34994;-91
2023/12/07 16:35:13;;;;;;;18.65;8.35;;;;;;;0.09;100.00;100621.56;5356117;33;34479;-92
2023/12/07 16:38:16;;;;;;;19.85;9.15;;;;;;;0.03;100.00;100620.19;5371533;33;34362;-91
2023/12/07 16:41:20;;;;;;;20.50;9.90;;;;;;;0.06;100.00;100625.28;5369949;33;34382;-89
2023/12/07 16:44:23;;;;;;;17.60;8.77;;;;;;;0.05;100.00;100630.66;5369810;33;34236;-89
2023/12/07 16:47:27;;;;;;;20.08;10.75;;;;;;;0.04;100.00;100624.53;5359800;33;35759;-88
2023/12/07 16:50:31;;;;;;;15.85;9.95;;;;;;;0.00;100.00;100631.00;5366916;33;33601;-87
2023/12/07 16:53:35;;;;;;;18.40;9.82;;;;;;;0.04;100.00;100632.47;5367042;33;34017;-88
2023/12/07 16:56:38;;;;;;;18.85;10.43;;;;;;;0.12;100.00;100637.25;5366946;33;33675;-87
2023/12/07 16:59:41;;;;;;;14.90;8.63;;;;;;;0.22;100.00;100641.78;5367668;33;33879;-87
